Time;durP1;ratioP1;P1;durP2;ratioP2;P2;SDS_P1;SDS_P2;PMS_P1;PMS_P2;Temp;Humidity;BMP_temperature;BMP_pressure;BME280_temperature;BME280_humidity;BME280_pressure;Samples;Min_cycle;Max_cycle;Signal;HPM_P1;HPM_P2
2022/03/22 00:01:35;;;;;;;22.88;14.02;;;;;;;;;;4992179;28;20054;-65
2022/03/22 00:04:02;;;;;;;19.67;13.45;;;;;;;;;;4991877;28;20046;-65
2022/03/22 00:06:32;;;;;;;21.80;13.63;;;;;;;;;;4992141;28;20062;-66
2022/03/22 00:08:59;;;;;;;21.65;14.70;;;;;;;;;;4999706;28;20505;-65
2022/03/22 00:11:26;;;;;;;26.02;14.35;;;;;;;;;;5011601;28;20108;-66
2022/03/22 00:13:53;;;;;;;23.20;14.25;;;;;;;;;;5011267;28;20073;-65
2022/03/22 00:16:20;;;;;;;19.85;14.48;;;;;;;;;;5011588;28;20401;-66
2022/03/22 00:19:06;;;;;;;18.40;13.00;;;;;;;;;;5002032;28;20058;-65
2022/03/22 00:21:35;;;;;;;21.33;14.55;;;;;;;;;;4992043;28;20050;-66
2022/03/22 00:24:02;;;;;;;22.30;14.07;;;;;;;;;;4991682;28;20163;-65
2022/03/22 00:26:29;;;;;;;19.60;13.98;;;;;;;;;;4991004;28;20480;-66
2022/03/22 00:28:57;;;;;;;20.10;13.73;;;;;;;;;;4991331;28;20490;-66
2022/03/22 00:31:28;;;;;;;23.67;14.70;;;;;;;;;;4991598;28;20108;-66
2022/03/22 00:33:55;;;;;;;21.27;14.52;;;;;;;;;;4991758;28;20308;-66
2022/03/22 00:36:22;;;;;;;20.92;14.80;;;;;;;;;;4991608;28;20054;-66
2022/03/22 00:38:49;;;;;;;24.02;14.88;;;;;;;;;;4991877;28;20058;-66
2022/03/22 00:41:17;;;;;;;24.60;14.65;;;;;;;;;;4991425;28;20113;-66
2022/03/22 00:43:44;;;;;;;21.70;13.43;;;;;;;;;;4991595;28;20437;-66
2022/03/22 00:46:11;;;;;;;23.65;13.68;;;;;;;;;;4991448;28;20054;-66
2022/03/22 00:48:39;;;;;;;21.83;14.38;;;;;;;;;;4991837;28;20054;-65
2022/03/22 00:51:06;;;;;;;20.63;14.52;;;;;;;;;;4994165;28;20140;-66
2022/03/22 00:53:33;;;;;;;25.17;14.05;;;;;;;;;;4994988;28;20054;-66
2022/03/22 00:56:01;;;;;;;20.50;13.85;;;;;;;;;;4995383;28;20108;-66
2022/03/22 00:58:27;;;;;;;20.05;13.10;;;;;;;;;;4995553;28;20104;-65
2022/03/22 01:00:54;;;;;;;20.45;13.98;;;;;;;;;;4995364;28;20468;-66
2022/03/22 01:03:21;;;;;;;22.08;13.18;;;;;;;;;;4995457;28;20489;-66
2022/03/22 01:05:50;;;;;;;22.27;13.07;;;;;;;;;;4994923;28;20054;-66
2022/03/22 01:08:17;;;;;;;20.25;13.85;;;;;;;;;;4995809;28;20054;-66
2022/03/22 01:10:51;;;;;;;20.38;13.10;;;;;;;;;;4994736;28;20097;-66
2022/03/22 01:13:21;;;;;;;21.35;13.15;;;;;;;;;;4994926;28;20133;-66
2022/03/22 01:15:49;;;;;;;21.60;12.73;;;;;;;;;;4994991;28;20054;-66
2022/03/22 01:18:16;;;;;;;19.00;13.02;;;;;;;;;;4994645;28;20050;-66
2022/03/22 01:20:46;;;;;;;22.23;13.43;;;;;;;;;;5014246;28;20120;-66
2022/03/22 01:23:12;;;;;;;21.58;13.38;;;;;;;;;;5014353;28;20129;-66
2022/03/22 01:25:41;;;;;;;24.40;14.30;;;;;;;;;;5014077;28;20057;-66
2022/03/22 01:28:09;;;;;;;19.10;13.18;;;;;;;;;;5014046;28;20053;-66
2022/03/22 01:30:36;;;;;;;20.88;13.82;;;;;;;;;;5013834;28;20053;-66
2022/03/22 01:33:03;;;;;;;19.30;12.68;;;;;;;;;;5013734;28;20337;-65
2022/03/22 01:35:30;;;;;;;23.05;13.38;;;;;;;;;;5014082;28;20054;-66
2022/03/22 01:37:57;;;;;;;17.40;12.27;;;;;;;;;;5013629;28;20492;-66
2022/03/22 01:40:27;;;;;;;21.52;13.65;;;;;;;;;;5013273;28;20053;-66
2022/03/22 01:42:54;;;;;;;20.88;13.13;;;;;;;;;;5013507;28;20050;-66
2022/03/22 01:45:20;;;;;;;18.90;13.40;;;;;;;;;;5013823;28;20046;-66
2022/03/22 01:47:48;;;;;;;21.10;13.20;;;;;;;;;;5004103;28;20054;-66
2022/03/22 01:50:16;;;;;;;21.77;14.65;;;;;;;;;;4977058;28;20050;-65
2022/03/22 01:52:43;;;;;;;20.33;13.68;;;;;;;;;;4993808;28;20050;-66
2022/03/22 01:55:13;;;;;;;22.38;13.43;;;;;;;;;;4993845;28;20054;-66
2022/03/22 01:57:40;;;;;;;19.75;13.15;;;;;;;;;;4994437;28;20209;-65
2022/03/22 02:00:10;;;;;;;23.73;14.32;;;;;;;;;;4993800;28;20054;-66
2022/03/22 02:08:10;;;;;;;19.60;13.15;;;;;;;;;;4965733;28;20050;-66
2022/03/22 02:10:38;;;;;;;20.90;15.02;;;;;;;;;;4993452;28;20058;-66
2022/03/22 02:13:05;;;;;;;20.60;14.23;;;;;;;;;;4993411;28;20501;-66
2022/03/22 02:15:31;;;;;;;23.17;14.85;;;;;;;;;;4993260;28;20083;-66
2022/03/22 02:17:59;;;;;;;24.48;14.35;;;;;;;;;;4994123;28;20046;-65
2022/03/22 02:20:27;;;;;;;21.88;13.15;;;;;;;;;;4993231;28;20500;-66
2022/03/22 02:23:03;;;;;;;21.15;13.60;;;;;;;;;;4993219;28;20078;-66
2022/03/22 02:25:30;;;;;;;20.33;14.65;;;;;;;;;;4993277;28;20050;-66
2022/03/22 02:27:57;;;;;;;20.88;13.82;;;;;;;;;;4994087;28;20195;-66
2022/03/22 02:30:24;;;;;;;23.98;14.57;;;;;;;;;;4993418;28;20464;-65
2022/03/22 02:32:55;;;;;;;21.27;14.25;;;;;;;;;;4993169;28;20058;-66
2022/03/22 02:35:23;;;;;;;24.10;14.70;;;;;;;;;;4993414;28;20046;-65
2022/03/22 02:37:50;;;;;;;22.58;14.52;;;;;;;;;;4998368;28;20073;-66
2022/03/22 02:40:17;;;;;;;22.33;15.15;;;;;;;;;;5013159;28;20084;-66
2022/03/22 02:42:50;;;;;;;26.25;14.80;;;;;;;;;;5012192;28;20104;-66
2022/03/22 02:45:17;;;;;;;;;;;;;;;;;;5013043;28;20046;-66
2022/03/22 02:47:44;;;;;;;21.88;14.40;;;;;;;;;;5008333;28;19925;-66
2022/03/22 02:50:12;;;;;;;25.50;14.27;;;;;;;;;;4993136;28;20050;-66
2022/03/22 02:52:39;;;;;;;23.23;14.45;;;;;;;;;;4992566;28;20054;-66
2022/03/22 02:55:07;;;;;;;24.60;14.88;;;;;;;;;;4992638;28;20104;-66
2022/03/22 02:57:34;;;;;;;24.17;14.40;;;;;;;;;;4992517;28;20046;-66
2022/03/22 03:00:03;;;;;;;22.30;13.82;;;;;;;;;;4992810;28;20112;-66
2022/03/22 03:02:29;;;;;;;22.38;15.10;;;;;;;;;;5012008;28;20174;-66
2022/03/22 03:04:56;;;;;;;23.02;14.80;;;;;;;;;;5012434;28;20046;-66
2022/03/22 03:07:23;;;;;;;24.48;14.77;;;;;;;;;;5012275;28;20050;-65
2022/03/22 03:09:50;;;;;;;22.00;13.98;;;;;;;;;;5011516;28;20096;-66
2022/03/22 03:12:16;;;;;;;23.77;15.05;;;;;;;;;;5011672;28;20073;-66
2022/03/22 03:14:43;;;;;;;24.23;14.70;;;;;;;;;;5012109;28;20050;-67
2022/03/22 03:17:12;;;;;;;23.05;14.13;;;;;;;;;;5012425;28;20046;-67
2022/03/22 03:19:39;;;;;;;25.17;14.85;;;;;;;;;;4995774;28;20057;-66
2022/03/22 03:22:06;;;;;;;21.73;14.82;;;;;;;;;;4992297;28;20406;-66
2022/03/22 03:24:33;;;;;;;23.10;15.18;;;;;;;;;;5041431;22;20105;-68
2022/03/22 03:27:00;;;;;;;26.13;16.10;;;;;;;;;;5051811;28;20049;-68
2022/03/22 03:29:26;;;;;;;23.58;15.65;;;;;;;;;;5051427;28;20083;-68
2022/03/22 03:31:53;;;;;;;20.33;14.48;;;;;;;;;;5051582;28;20099;-67
2022/03/22 03:34:20;;;;;;;22.88;15.32;;;;;;;;;;5051279;28;20114;-68
2022/03/22 03:36:47;;;;;;;22.52;15.18;;;;;;;;;;5051379;28;20056;-68
2022/03/22 03:39:14;;;;;;;23.17;14.93;;;;;;;;;;5038370;28;20111;-68
2022/03/22 03:41:59;;;;;;;20.45;15.65;;;;;;;;;;5031639;28;20050;-68
2022/03/22 03:47:14;;;;;;;22.80;14.93;;;;;;;;;;5031601;28;20049;-68
2022/03/22 03:49:42;;;;;;;20.77;13.90;;;;;;;;;;5031699;28;20053;-68
2022/03/22 03:52:11;;;;;;;22.08;14.55;;;;;;;;;;5031409;28;20049;-69
2022/03/22 03:54:38;;;;;;;21.83;14.57;;;;;;;;;;5031241;28;20049;-66
2022/03/22 03:57:05;;;;;;;20.45;13.80;;;;;;;;;;5031585;28;20053;-66
2022/03/22 03:59:33;;;;;;;21.30;13.98;;;;;;;;;;5045366;28;20145;-67
2022/03/22 04:02:00;;;;;;;20.88;14.07;;;;;;;;;;5033580;28;20080;-66
2022/03/22 04:04:26;;;;;;;25.83;15.30;;;;;;;;;;5050963;28;20514;-67
2022/03/22 04:06:53;;;;;;;23.50;14.77;;;;;;;;;;5051512;28;20044;-67
2022/03/22 04:09:20;;;;;;;22.95;14.40;;;;;;;;;;5038847;28;20054;-67
2022/03/22 04:11:47;;;;;;;21.92;14.80;;;;;;;;;;5031055;28;20076;-67
2022/03/22 04:14:14;;;;;;;24.85;15.15;;;;;;;;;;5031094;28;20095;-66
2022/03/22 04:16:41;;;;;;;24.60;15.15;;;;;;;;;;5031350;28;20049;-67
2022/03/22 04:19:08;;;;;;;21.55;14.02;;;;;;;;;;5031350;28;20053;-67
2022/03/22 04:21:36;;;;;;;19.73;14.13;;;;;;;;;;5031031;28;20061;-67
2022/03/22 04:24:07;;;;;;;19.02;14.32;;;;;;;;;;5031045;28;20500;-67
2022/03/22 04:26:39;;;;;;;24.73;15.60;;;;;;;;;;5034692;28;20111;-66
2022/03/22 04:34:38;;;;;;;23.10;14.07;;;;;;;;;;5054761;28;20049;-67
2022/03/22 04:37:07;;;;;;;25.23;15.70;;;;;;;;;;5054497;28;20099;-67
2022/03/22 04:39:33;;;;;;;24.15;15.57;;;;;;;;;;5054946;28;20122;-67
2022/03/22 04:42:00;;;;;;;24.02;15.55;;;;;;;;;;5054266;28;20053;-66
2022/03/22 04:44:29;;;;;;;22.10;14.15;;;;;;;;;;5037010;28;20049;-67
2022/03/22 04:46:56;;;;;;;26.08;16.23;;;;;;;;;;5036743;28;20064;-67
2022/03/22 04:49:24;;;;;;;23.77;14.98;;;;;;;;;;5054348;28;20053;-67
2022/03/22 04:57:21;;;;;;;23.48;15.32;;;;;;;;;;5054350;28;20637;-67
2022/03/22 04:59:48;;;;;;;24.70;16.35;;;;;;;;;;5038929;28;20459;-67
2022/03/22 05:02:15;;;;;;;22.48;14.85;;;;;;;;;;5034450;28;20549;-67
2022/03/22 05:04:43;;;;;;;24.92;15.45;;;;;;;;;;5034430;28;20045;-67
2022/03/22 05:07:09;;;;;;;26.63;15.20;;;;;;;;;;5034021;28;20104;-67
2022/03/22 05:09:36;;;;;;;22.83;15.18;;;;;;;;;;5047476;28;20103;-67
2022/03/22 05:12:03;;;;;;;24.15;16.05;;;;;;;;;;5036370;28;20107;-67
2022/03/22 05:14:31;;;;;;;23.25;15.27;;;;;;;;;;5053653;28;20049;-68
2022/03/22 05:16:58;;;;;;;24.30;16.17;;;;;;;;;;5054049;28;20487;-68
2022/03/22 05:19:25;;;;;;;25.40;15.60;;;;;;;;;;5042373;28;20050;-67
2022/03/22 05:21:52;;;;;;;22.25;15.10;;;;;;;;;;5034088;28;20053;-67
2022/03/22 05:24:20;;;;;;;22.48;15.00;;;;;;;;;;5033734;28;20119;-68
2022/03/22 05:26:46;;;;;;;28.63;17.95;;;;;;;;;;5033966;28;20484;-68
2022/03/22 05:29:13;;;;;;;25.92;15.85;;;;;;;;;;5033638;28;20049;-67
2022/03/22 05:31:40;;;;;;;24.63;15.98;;;;;;;;;;5033926;28;20451;-68
2022/03/22 05:34:07;;;;;;;24.27;15.82;;;;;;;;;;5035928;28;20045;-68
2022/03/22 05:36:34;;;;;;;23.33;15.90;;;;;;;;;;5032927;28;20045;-68
2022/03/22 05:39:01;;;;;;;22.15;14.93;;;;;;;;;;5033675;28;20107;-68
2022/03/22 05:41:27;;;;;;;25.50;16.27;;;;;;;;;;5033374;28;20412;-68
2022/03/22 05:43:54;;;;;;;28.45;18.08;;;;;;;;;;5032985;28;20049;-68
2022/03/22 05:46:22;;;;;;;30.15;19.35;;;;;;;;;;5033460;28;20080;-68
2022/03/22 05:48:49;;;;;;;28.65;18.92;;;;;;;;;;5033699;28;20086;-68
2022/03/22 05:51:19;;;;;;;31.48;19.60;;;;;;;;;;5032831;28;20049;-68
2022/03/22 05:53:46;;;;;;;26.40;18.45;;;;;;;;;;5015604;28;20116;-68
2022/03/22 05:56:12;;;;;;;27.27;17.85;;;;;;;;;;5028235;28;20050;-68
2022/03/22 05:58:40;;;;;;;30.70;17.98;;;;;;;;;;5033429;28;20049;-68
2022/03/22 06:01:07;;;;;;;23.75;16.20;;;;;;;;;;5015498;28;20065;-68
2022/03/22 06:03:34;;;;;;;30.55;19.58;;;;;;;;;;5032816;28;20045;-67
2022/03/22 06:06:01;;;;;;;34.00;22.15;;;;;;;;;;5032724;28;20089;-68
2022/03/22 06:08:29;;;;;;;38.15;21.33;;;;;;;;;;5032312;28;20099;-68
2022/03/22 06:10:57;;;;;;;50.15;27.38;;;;;;;;;;5037497;28;20113;-68
2022/03/22 06:13:23;;;;;;;35.70;22.63;;;;;;;;;;5047667;28;20112;-68
2022/03/22 06:15:52;;;;;;;32.10;21.10;;;;;;;;;;5031817;28;20096;-67
2022/03/22 06:18:19;;;;;;;44.55;25.73;;;;;;;;;;5033384;28;20046;-68
2022/03/22 06:20:45;;;;;;;40.15;25.13;;;;;;;;;;5032181;28;20061;-67
2022/03/22 06:23:14;;;;;;;41.78;24.15;;;;;;;;;;5032502;28;20401;-67
2022/03/22 06:25:41;;;;;;;43.03;26.20;;;;;;;;;;5032207;28;20049;-68
2022/03/22 06:28:09;;;;;;;28.52;18.10;;;;;;;;;;5033107;28;20463;-68
2022/03/22 06:30:36;;;;;;;29.40;18.30;;;;;;;;;;5032760;28;20111;-67
2022/03/22 06:33:11;;;;;;;28.15;17.42;;;;;;;;;;5032835;28;20463;-68
2022/03/22 06:35:38;;;;;;;24.73;15.85;;;;;;;;;;5032542;28;20045;-68
2022/03/22 06:38:04;;;;;;;27.40;15.95;;;;;;;;;;5032275;28;20095;-68
2022/03/22 06:40:34;;;;;;;25.25;15.38;;;;;;;;;;5032627;28;20049;-68
2022/03/22 06:43:02;;;;;;;29.40;16.13;;;;;;;;;;5032053;28;20136;-68
2022/03/22 06:45:34;;;;;;;;;;;;;;;;;;5034227;28;20050;-68
2022/03/22 06:48:00;;;;;;;23.95;16.10;;;;;;;;;;5051368;28;20019;-67
2022/03/22 06:50:27;;;;;;;25.20;15.27;;;;;;;;;;5052234;28;20205;-68
2022/03/22 06:52:54;;;;;;;27.27;17.15;;;;;;;;;;5052106;28;20391;-68
2022/03/22 06:55:22;;;;;;;25.83;16.77;;;;;;;;;;5052392;28;20045;-68
2022/03/22 06:57:54;;;;;;;25.50;15.57;;;;;;;;;;5052053;28;20056;-69
2022/03/22 07:00:21;;;;;;;22.95;15.15;;;;;;;;;;5052281;28;20450;-68
2022/03/22 07:02:48;;;;;;;23.10;14.90;;;;;;;;;;5051704;28;20419;-67
2022/03/22 07:05:16;;;;;;;22.73;15.07;;;;;;;;;;5051929;28;20100;-67
2022/03/22 07:07:43;;;;;;;20.60;14.32;;;;;;;;;;5034325;28;20053;-68
2022/03/22 07:10:13;;;;;;;20.38;14.50;;;;;;;;;;5030417;28;20050;-67
2022/03/22 07:12:51;;;;;;;22.50;13.73;;;;;;;;;;5029893;28;20045;-67
2022/03/22 07:15:37;;;;;;;21.60;13.82;;;;;;;;;;5030012;28;20046;-68
2022/03/22 07:18:06;;;;;;;24.70;14.55;;;;;;;;;;5030108;28;20054;-67
2022/03/22 07:20:33;;;;;;;19.33;13.27;;;;;;;;;;5029752;28;20053;-67
2022/03/22 07:23:01;;;;;;;22.17;14.02;;;;;;;;;;5029144;28;20056;-67
2022/03/22 07:25:28;;;;;;;20.38;13.13;;;;;;;;;;5029401;28;20061;-67
2022/03/22 07:27:57;;;;;;;19.98;12.98;;;;;;;;;;5048730;28;20045;-67
2022/03/22 07:30:24;;;;;;;21.17;12.90;;;;;;;;;;5049456;28;20049;-67
2022/03/22 07:32:51;;;;;;;18.70;12.85;;;;;;;;;;5049585;28;20052;-67
2022/03/22 07:35:19;;;;;;;22.40;13.73;;;;;;;;;;5049689;28;20075;-67
2022/03/22 07:37:46;;;;;;;21.63;12.98;;;;;;;;;;5031676;28;20535;-67
2022/03/22 07:40:13;;;;;;;17.65;12.63;;;;;;;;;;5029746;28;20057;-67
2022/03/22 07:42:39;;;;;;;19.65;13.57;;;;;;;;;;5029334;28;20413;-67
2022/03/22 07:45:08;;;;;;;23.55;13.88;;;;;;;;;;5029524;28;20115;-67
2022/03/22 07:47:35;;;;;;;23.90;14.05;;;;;;;;;;5029685;28;20205;-68
2022/03/22 07:53:05;;;;;;;19.23;12.45;;;;;;;;;;5029387;28;20053;-68
2022/03/22 07:55:40;;;;;;;20.15;11.88;;;;;;;;;;5029229;28;20081;-67
2022/03/22 07:58:07;;;;;;;19.92;12.05;;;;;;;;;;5049281;28;20056;-68
2022/03/22 08:00:35;;;;;;;20.45;12.88;;;;;;;;;;5053367;28;20050;-68
2022/03/22 08:03:03;;;;;;;21.83;12.45;;;;;;;;;;5052517;28;20053;-67
2022/03/22 08:05:31;;;;;;;17.35;11.50;;;;;;;;;;5053196;28;20412;-68
2022/03/22 08:07:59;;;;;;;16.52;10.80;;;;;;;;;;5034688;28;20049;-68
2022/03/22 08:10:46;;;;;;;13.00;9.82;;;;;;;;;;5033334;28;20599;-68
2022/03/22 08:13:12;;;;;;;14.88;10.43;;;;;;;;;;5015713;28;20605;-68
2022/03/22 08:15:39;;;;;;;16.38;10.13;;;;;;;;;;5032739;28;20049;-69
2022/03/22 08:18:06;;;;;;;18.95;10.13;;;;;;;;;;5032818;28;20127;-68
2022/03/22 08:20:33;;;;;;;16.98;10.93;;;;;;;;;;5033739;28;20053;-69
2022/03/22 08:23:03;;;;;;;15.75;11.18;;;;;;;;;;5032969;28;20073;-68
2022/03/22 08:25:32;;;;;;;17.23;11.55;;;;;;;;;;5033012;28;20075;-68
2022/03/22 08:28:00;;;;;;;18.67;10.55;;;;;;;;;;5050222;28;20577;-67
2022/03/22 08:30:28;;;;;;;16.90;10.82;;;;;;;;;;5018188;28;20500;-66
2022/03/22 08:33:00;;;;;;;14.07;10.18;;;;;;;;;;5020595;28;20057;-65
2022/03/22 08:35:28;;;;;;;14.48;10.55;;;;;;;;;;5022803;28;20053;-66
2022/03/22 08:37:55;;;;;;;22.60;11.77;;;;;;;;;;5020376;28;20200;-66
2022/03/22 08:40:22;;;;;;;16.42;11.02;;;;;;;;;;5019959;28;20042;-68
2022/03/22 08:42:51;;;;;;;15.05;10.85;;;;;;;;;;5017020;28;20050;-65
2022/03/22 08:45:22;;;;;;;15.02;10.35;;;;;;;;;;5018809;28;20046;-67
2022/03/22 08:47:50;;;;;;;19.25;10.73;;;;;;;;;;5023335;28;20115;-66
2022/03/22 08:50:22;;;;;;;19.38;11.95;;;;;;;;;;5017348;28;20081;-67
2022/03/22 08:52:49;;;;;;;18.85;11.40;;;;;;;;;;5018323;28;20065;-66
2022/03/22 08:55:17;;;;;;;14.52;10.38;;;;;;;;;;5018769;28;20057;-66
2022/03/22 08:57:46;;;;;;;17.45;10.85;;;;;;;;;;5022354;28;20562;-68
2022/03/22 09:00:14;;;;;;;15.43;11.07;;;;;;;;;;5019298;28;21201;-67
2022/03/22 09:02:42;;;;;;;17.40;12.05;;;;;;;;;;5022336;28;20184;-68
2022/03/22 09:07:58;;;;;;;16.67;11.30;;;;;;;;;;5017360;28;20049;-68
2022/03/22 09:10:25;;;;;;;16.65;11.43;;;;;;;;;;5018305;28;20062;-68
2022/03/22 09:12:52;;;;;;;15.70;11.30;;;;;;;;;;5017642;28;20053;-67
2022/03/22 09:15:19;;;;;;;13.73;10.13;;;;;;;;;;4987198;28;20100;-71
2022/03/22 09:17:46;;;;;;;18.40;11.20;;;;;;;;;;5020353;28;20417;-68
2022/03/22 09:20:13;;;;;;;12.65;9.75;;;;;;;;;;5018231;28;20544;-69
2022/03/22 09:22:42;;;;;;;17.92;11.73;;;;;;;;;;5011812;28;20054;-68
2022/03/22 09:25:10;;;;;;;16.17;11.45;;;;;;;;;;5052853;22;20076;-68
2022/03/22 09:27:38;;;;;;;16.48;11.63;;;;;;;;;;5006821;28;20098;-69
2022/03/22 09:30:08;;;;;;;20.52;12.27;;;;;;;;;;5038890;28;20430;-68
2022/03/22 09:32:35;;;;;;;17.95;11.82;;;;;;;;;;5040163;28;20060;-69
2022/03/22 09:35:06;;;;;;;18.42;11.50;;;;;;;;;;5042022;28;21380;-71
2022/03/22 09:37:34;;;;;;;16.08;11.15;;;;;;;;;;5039415;28;20153;-73
2022/03/22 09:40:01;;;;;;;16.05;11.40;;;;;;;;;;5040972;28;20107;-65
2022/03/22 09:42:28;;;;;;;15.63;11.07;;;;;;;;;;5037864;28;20079;-64
2022/03/22 09:44:55;;;;;;;17.30;12.43;;;;;;;;;;5040777;28;20063;-70
2022/03/22 09:47:21;;;;;;;17.35;11.23;;;;;;;;;;5018801;28;20175;-66
2022/03/22 09:49:48;;;;;;;15.55;11.23;;;;;;;;;;5040265;28;20053;-65
2022/03/22 09:52:14;;;;;;;17.83;11.88;;;;;;;;;;5038364;28;20104;-71
2022/03/22 09:54:41;;;;;;;15.63;11.75;;;;;;;;;;5042841;28;20059;-70
2022/03/22 09:57:08;;;;;;;18.45;11.68;;;;;;;;;;5043054;28;20049;-65
2022/03/22 09:59:36;;;;;;;18.00;12.15;;;;;;;;;;5042383;28;20052;-69
2022/03/22 10:02:04;;;;;;;16.17;11.98;;;;;;;;;;5041487;28;20132;-68
2022/03/22 10:04:43;;;;;;;18.23;12.05;;;;;;;;;;5038570;28;20078;-72
2022/03/22 10:07:18;;;;;;;20.25;13.30;;;;;;;;;;5042855;28;20049;-69
2022/03/22 10:09:59;;;;;;;18.42;12.38;;;;;;;;;;5042727;28;20056;-70
2022/03/22 10:12:33;;;;;;;17.10;12.05;;;;;;;;;;5041051;28;20049;-70
2022/03/22 10:15:06;;;;;;;17.10;12.43;;;;;;;;;;5039369;28;20053;-72
2022/03/22 10:17:32;;;;;;;15.65;11.77;;;;;;;;;;5042471;28;20099;-71
2022/03/22 10:20:06;;;;;;;17.77;13.02;;;;;;;;;;5048142;28;20049;-71
2022/03/22 10:22:33;;;;;;;15.88;11.77;;;;;;;;;;5041969;28;20110;-71
2022/03/22 10:25:05;;;;;;;17.52;12.02;;;;;;;;;;5041386;28;20049;-70
2022/03/22 10:27:34;;;;;;;16.67;12.02;;;;;;;;;;5037615;28;20045;-70
2022/03/22 10:30:21;;;;;;;18.10;13.05;;;;;;;;;;5040286;28;20081;-71
2022/03/22 10:32:51;;;;;;;18.77;11.68;;;;;;;;;;5039619;28;20049;-69
2022/03/22 10:35:24;;;;;;;18.92;12.27;;;;;;;;;;5036751;28;20048;-68
2022/03/22 10:37:58;;;;;;;15.17;11.93;;;;;;;;;;5039744;28;20049;-70
2022/03/22 10:40:33;;;;;;;20.10;14.10;;;;;;;;;;5038059;28;20398;-70
2022/03/22 10:43:08;;;;;;;14.80;11.82;;;;;;;;;;5038982;28;20080;-72
2022/03/22 10:46:02;;;;;;;16.52;11.63;;;;;;;;;;5040858;28;20053;-70
2022/03/22 10:48:34;;;;;;;16.20;12.02;;;;;;;;;;5033927;28;20531;-68
2022/03/22 10:51:02;;;;;;;20.40;13.35;;;;;;;;;;5038007;28;20460;-68
2022/03/22 10:53:31;;;;;;;41.53;22.58;;;;;;;;;;5042463;28;20049;-70
2022/03/22 10:55:59;;;;;;;23.95;15.13;;;;;;;;;;5040519;28;20049;-70
2022/03/22 10:58:27;;;;;;;19.75;13.95;;;;;;;;;;5040446;28;20042;-73
2022/03/22 11:00:54;;;;;;;15.93;11.68;;;;;;;;;;5035824;28;20107;-68
2022/03/22 11:03:21;;;;;;;19.48;12.77;;;;;;;;;;5038033;28;20044;-68
2022/03/22 11:05:50;;;;;;;17.63;12.38;;;;;;;;;;5019357;28;20045;-68
2022/03/22 11:08:19;;;;;;;19.48;12.93;;;;;;;;;;5038900;28;20037;-66
2022/03/22 11:10:45;;;;;;;18.08;12.70;;;;;;;;;;5037182;28;20083;-66
2022/03/22 11:13:12;;;;;;;18.23;13.25;;;;;;;;;;5037865;28;20049;-66
2022/03/22 11:15:41;;;;;;;19.10;13.30;;;;;;;;;;5037622;28;20107;-67
2022/03/22 11:18:07;;;;;;;16.00;12.25;;;;;;;;;;5037387;28;20042;-67
2022/03/22 11:20:36;;;;;;;18.98;13.20;;;;;;;;;;5041090;28;20049;-67
2022/03/22 11:23:03;;;;;;;19.52;13.50;;;;;;;;;;5034041;28;20060;-67
2022/03/22 11:25:34;;;;;;;19.48;13.20;;;;;;;;;;5039471;28;20045;-68
2022/03/22 11:28:08;;;;;;;17.88;13.23;;;;;;;;;;5034917;28;20053;-67
2022/03/22 11:30:39;;;;;;;19.17;13.02;;;;;;;;;;5036248;28;20060;-67
2022/03/22 11:35:53;;;;;;;20.02;13.75;;;;;;;;;;5032179;28;20058;-66
2022/03/22 11:38:36;;;;;;;21.15;13.35;;;;;;;;;;5036104;28;20044;-68
2022/03/22 11:43:48;;;;;;;16.15;13.18;;;;;;;;;;5037409;28;20049;-68
2022/03/22 11:46:15;;;;;;;17.90;13.73;;;;;;;;;;5038722;28;20049;-67
2022/03/22 11:48:41;;;;;;;21.30;14.98;;;;;;;;;;5036942;28;20055;-67
2022/03/22 11:51:09;;;;;;;21.45;14.00;;;;;;;;;;5036244;28;20179;-68
2022/03/22 11:53:43;;;;;;;20.17;13.52;;;;;;;;;;5041661;28;20066;-67
2022/03/22 11:56:11;;;;;;;18.65;14.57;;;;;;;;;;5035919;28;20053;-70
2022/03/22 11:58:51;;;;;;;21.98;13.18;;;;;;;;;;5039269;28;20072;-69
2022/03/22 12:01:34;;;;;;;21.02;14.18;;;;;;;;;;5037854;28;20056;-66
2022/03/22 12:04:02;;;;;;;21.33;14.13;;;;;;;;;;5036092;28;20454;-66
2022/03/22 12:06:31;;;;;;;19.00;13.35;;;;;;;;;;5038595;28;20046;-65
2022/03/22 12:08:57;;;;;;;17.77;13.98;;;;;;;;;;5037677;28;20119;-65
2022/03/22 12:11:24;;;;;;;18.25;13.63;;;;;;;;;;5034787;28;20389;-65
2022/03/22 12:13:50;;;;;;;20.45;13.82;;;;;;;;;;5036831;28;20053;-65
2022/03/22 12:16:17;;;;;;;18.50;13.48;;;;;;;;;;5038922;28;20045;-65
2022/03/22 12:18:44;;;;;;;18.90;14.68;;;;;;;;;;5040467;28;20052;-64
2022/03/22 12:21:21;;;;;;;16.60;13.13;;;;;;;;;;5036194;28;20050;-65
2022/03/22 12:23:48;;;;;;;22.42;14.77;;;;;;;;;;5031190;28;20112;-65
2022/03/22 12:26:15;;;;;;;17.73;14.32;;;;;;;;;;5037762;28;20046;-65
2022/03/22 12:28:49;;;;;;;17.80;12.68;;;;;;;;;;5038524;28;20561;-65
2022/03/22 12:31:21;;;;;;;18.83;14.20;;;;;;;;;;5039660;28;20045;-65
2022/03/22 12:33:51;;;;;;;18.73;14.00;;;;;;;;;;5036169;28;20136;-66
2022/03/22 12:36:19;;;;;;;20.17;13.20;;;;;;;;;;5029833;28;20057;-65
2022/03/22 12:38:45;;;;;;;17.20;14.13;;;;;;;;;;5036549;28;20492;-66
2022/03/22 12:41:12;;;;;;;17.77;12.75;;;;;;;;;;5037832;28;20041;-65
2022/03/22 12:43:45;;;;;;;17.10;13.77;;;;;;;;;;5036841;28;20050;-66
2022/03/22 12:46:12;;;;;;;;;;;;;;;;;;5037371;28;20057;-66
2022/03/22 12:48:40;;;;;;;17.80;13.65;;;;;;;;;;5045300;28;19921;-66
2022/03/22 12:51:08;;;;;;;15.55;13.77;;;;;;;;;;5035865;28;20045;-65
2022/03/22 12:53:35;;;;;;;16.73;12.82;;;;;;;;;;5040517;28;20049;-66
2022/03/22 12:56:11;;;;;;;17.08;13.95;;;;;;;;;;5041307;28;20577;-66
2022/03/22 12:58:38;;;;;;;17.52;13.45;;;;;;;;;;5040024;28;20048;-68
2022/03/22 13:01:05;;;;;;;19.10;13.98;;;;;;;;;;5036100;28;20041;-66
2022/03/22 13:03:31;;;;;;;19.48;13.20;;;;;;;;;;5041794;28;20045;-67
2022/03/22 13:05:58;;;;;;;13.38;12.00;;;;;;;;;;5040057;28;20076;-73
2022/03/22 13:08:26;;;;;;;15.95;13.25;;;;;;;;;;5038494;28;20042;-72
2022/03/22 13:16:27;;;;;;;16.88;13.48;;;;;;;;;;5039735;28;20099;-73
2022/03/22 13:18:57;;;;;;;14.80;13.25;;;;;;;;;;5044638;28;20051;-71
2022/03/22 13:21:24;;;;;;;15.73;13.98;;;;;;;;;;5037993;28;20046;-70
2022/03/22 13:24:08;;;;;;;18.85;12.73;;;;;;;;;;5040989;28;20056;-67
2022/03/22 13:26:36;;;;;;;17.25;13.68;;;;;;;;;;5039636;28;20431;-69
2022/03/22 13:29:16;;;;;;;15.30;12.85;;;;;;;;;;5044492;28;20438;-69
2022/03/22 13:31:57;;;;;;;17.52;13.77;;;;;;;;;;5036506;28;20484;-67
2022/03/22 13:34:27;;;;;;;16.17;12.85;;;;;;;;;;5040344;28;20045;-68
2022/03/22 13:37:09;;;;;;;17.95;13.27;;;;;;;;;;5039937;28;20052;-70
2022/03/22 13:39:44;;;;;;;15.65;12.20;;;;;;;;;;5034096;28;20050;-69
2022/03/22 13:42:29;;;;;;;16.52;13.63;;;;;;;;;;5040723;28;20573;-70
2022/03/22 13:44:59;;;;;;;15.57;13.43;;;;;;;;;;5041725;28;20049;-69
2022/03/22 13:47:41;;;;;;;14.52;12.82;;;;;;;;;;5040804;28;20041;-70
2022/03/22 13:50:08;;;;;;;14.33;12.80;;;;;;;;;;5034214;28;20300;-70
2022/03/22 13:52:36;;;;;;;14.38;11.27;;;;;;;;;;5038770;28;20534;-71
2022/03/22 13:55:13;;;;;;;14.77;12.27;;;;;;;;;;5040995;28;20099;-70
2022/03/22 13:57:41;;;;;;;21.48;13.68;;;;;;;;;;5044068;28;20052;-69
2022/03/22 14:00:09;;;;;;;15.80;14.00;;;;;;;;;;5039717;28;20049;-67
2022/03/22 14:02:36;;;;;;;15.13;13.15;;;;;;;;;;5041348;28;20115;-71
2022/03/22 14:05:03;;;;;;;16.17;13.52;;;;;;;;;;5040290;28;20407;-70
2022/03/22 14:07:30;;;;;;;15.70;13.43;;;;;;;;;;5034528;28;20451;-67
2022/03/22 14:09:57;;;;;;;14.32;12.60;;;;;;;;;;5038423;28;20050;-64
2022/03/22 14:12:24;;;;;;;14.18;12.60;;;;;;;;;;5037424;28;20112;-64
2022/03/22 14:14:51;;;;;;;16.35;12.95;;;;;;;;;;5039976;28;20106;-65
2022/03/22 14:17:18;;;;;;;16.65;12.82;;;;;;;;;;5034622;28;20671;-65
2022/03/22 14:19:45;;;;;;;17.58;13.50;;;;;;;;;;5037514;28;20132;-65
2022/03/22 14:22:11;;;;;;;16.10;13.10;;;;;;;;;;5040562;28;20053;-66
2022/03/22 14:24:38;;;;;;;21.20;12.98;;;;;;;;;;5037218;28;20068;-66
2022/03/22 14:27:05;;;;;;;15.90;12.07;;;;;;;;;;5029999;28;20104;-66
2022/03/22 14:29:31;;;;;;;18.70;12.27;;;;;;;;;;5037322;28;20566;-65
2022/03/22 14:31:58;;;;;;;18.83;13.82;;;;;;;;;;5037404;28;20061;-65
2022/03/22 14:37:09;;;;;;;15.85;12.88;;;;;;;;;;5039086;28;20045;-64
2022/03/22 14:39:36;;;;;;;15.75;13.05;;;;;;;;;;5038119;28;20045;-65
2022/03/22 14:42:03;;;;;;;16.75;13.32;;;;;;;;;;5038550;28;20049;-64
2022/03/22 14:44:30;;;;;;;15.63;12.68;;;;;;;;;;5038208;28;20045;-64
2022/03/22 14:46:56;;;;;;;16.08;12.50;;;;;;;;;;5038491;28;20114;-65
2022/03/22 14:49:24;;;;;;;15.63;13.27;;;;;;;;;;5038122;28;20099;-65
2022/03/22 14:54:36;;;;;;;15.23;12.85;;;;;;;;;;5037885;28;20104;-69
2022/03/22 14:59:48;;;;;;;18.92;13.20;;;;;;;;;;5037294;28;20053;-72
2022/03/22 15:02:17;;;;;;;16.92;13.40;;;;;;;;;;5038284;28;20045;-70
2022/03/22 15:04:46;;;;;;;18.42;13.23;;;;;;;;;;5039129;28;20060;-70
2022/03/22 15:07:15;;;;;;;18.48;14.15;;;;;;;;;;5042187;28;20102;-70
2022/03/22 15:09:42;;;;;;;16.50;13.15;;;;;;;;;;5041398;28;20562;-70
2022/03/22 15:12:12;;;;;;;17.20;12.93;;;;;;;;;;5037982;28;20053;-68